sensor_id;sensor_type;location;lat;lon;timestamp;temperature;humidity
28524;DHT22;15734;50.904;6.922;2023-02-26T00:00:09;1.60;99.90
28524;DHT22;15734;50.904;6.922;2023-02-26T00:02:42;1.60;99.90
28524;DHT22;15734;50.904;6.922;2023-02-26T00:05:10;1.60;99.90
28524;DHT22;15734;50.904;6.922;2023-02-26T00:07:36;1.50;99.90
28524;DHT22;15734;50.904;6.922;2023-02-26T00:10:02;1.50;99.90
28524;DHT22;15734;50.904;6.922;2023-02-26T00:12:29;1.50;99.90
28524;DHT22;15734;50.904;6.922;2023-02-26T00:14:55;1.60;99.90
28524;DHT22;15734;50.904;6.922;2023-02-26T00:19:58;1.60;99.90
28524;DHT22;15734;50.904;6.922;2023-02-26T00:22:24;1.60;99.90
28524;DHT22;15734;50.904;6.922;2023-02-26T00:24:49;1.60;99.90
28524;DHT22;15734;50.904;6.922;2023-02-26T00:27:15;1.60;99.90
28524;DHT22;15734;50.904;6.922;2023-02-26T00:29:40;1.60;99.90
28524;DHT22;15734;50.904;6.922;2023-02-26T00:32:06;1.60;99.90
28524;DHT22;15734;50.904;6.922;2023-02-26T00:34:32;1.60;99.90
28524;DHT22;15734;50.904;6.922;2023-02-26T00:42:07;1.60;99.90
28524;DHT22;15734;50.904;6.922;2023-02-26T00:44:33;1.70;99.90
28524;DHT22;15734;50.904;6.922;2023-02-26T00:49:46;1.70;99.90
28524;DHT22;15734;50.904;6.922;2023-02-26T00:52:18;1.80;99.90
28524;DHT22;15734;50.904;6.922;2023-02-26T00:54:44;1.80;99.90
28524;DHT22;15734;50.904;6.922;2023-02-26T00:57:10;1.80;99.90
28524;DHT22;15734;50.904;6.922;2023-02-26T00:59:35;1.80;99.90
28524;DHT22;15734;50.904;6.922;2023-02-26T01:02:01;1.90;99.90
28524;DHT22;15734;50.904;6.922;2023-02-26T01:04:26;1.90;99.90
28524;DHT22;15734;50.904;6.922;2023-02-26T01:06:53;1.90;99.90
28524;DHT22;15734;50.904;6.922;2023-02-26T01:09:21;1.90;99.90
28524;DHT22;15734;50.904;6.922;2023-02-26T01:11:49;1.90;99.90
28524;DHT22;15734;50.904;6.922;2023-02-26T01:14:14;1.90;99.90
28524;DHT22;15734;50.904;6.922;2023-02-26T01:16:42;1.90;99.90
28524;DHT22;15734;50.904;6.922;2023-02-26T01:19:17;1.90;99.90
28524;DHT22;15734;50.904;6.922;2023-02-26T01:21:45;1.90;99.90
28524;DHT22;15734;50.904;6.922;2023-02-26T01:24:13;1.80;99.90
28524;DHT22;15734;50.904;6.922;2023-02-26T01:26:39;1.80;99.90
28524;DHT22;15734;50.904;6.922;2023-02-26T01:29:05;1.80;99.90
28524;DHT22;15734;50.904;6.922;2023-02-26T01:33:58;1.80;99.90
28524;DHT22;15734;50.904;6.922;2023-02-26T01:36:27;1.80;99.90
28524;DHT22;15734;50.904;6.922;2023-02-26T01:49:24;1.80;99.90
28524;DHT22;15734;50.904;6.922;2023-02-26T01:51:51;1.70;99.90
28524;DHT22;15734;50.904;6.922;2023-02-26T01:54:50;1.80;99.90
28524;DHT22;15734;50.904;6.922;2023-02-26T01:57:10;1.70;99.90
28524;DHT22;15734;50.904;6.922;2023-02-26T01:59:37;1.60;99.90
28524;DHT22;15734;50.904;6.922;2023-02-26T02:02:04;1.60;99.90
28524;DHT22;15734;50.904;6.922;2023-02-26T02:04:30;1.50;99.90
28524;DHT22;15734;50.904;6.922;2023-02-26T02:06:57;1.40;99.90
28524;DHT22;15734;50.904;6.922;2023-02-26T02:09:23;1.40;99.90
28524;DHT22;15734;50.904;6.922;2023-02-26T02:17:56;1.40;99.90
28524;DHT22;15734;50.904;6.922;2023-02-26T02:27:53;1.40;99.90
28524;DHT22;15734;50.904;6.922;2023-02-26T02:30:23;1.40;99.90
28524;DHT22;15734;50.904;6.922;2023-02-26T02:32:57;1.40;99.90
28524;DHT22;15734;50.904;6.922;2023-02-26T02:35:25;1.40;99.90
28524;DHT22;15734;50.904;6.922;2023-02-26T02:38:04;1.40;99.90
28524;DHT22;15734;50.904;6.922;2023-02-26T02:40:32;1.40;99.90
28524;DHT22;15734;50.904;6.922;2023-02-26T02:45:54;1.40;99.90
28524;DHT22;15734;50.904;6.922;2023-02-26T02:48:21;1.40;99.90
28524;DHT22;15734;50.904;6.922;2023-02-26T02:50:54;1.40;99.90
28524;DHT22;15734;50.904;6.922;2023-02-26T02:55:50;1.30;99.90
28524;DHT22;15734;50.904;6.922;2023-02-26T02:58:17;1.20;99.90
28524;DHT22;15734;50.904;6.922;2023-02-26T03:00:47;1.20;99.90
28524;DHT22;15734;50.904;6.922;2023-02-26T03:03:22;1.20;99.90
28524;DHT22;15734;50.904;6.922;2023-02-26T03:05:49;1.20;99.90
28524;DHT22;15734;50.904;6.922;2023-02-26T03:08:15;1.20;99.90
28524;DHT22;15734;50.904;6.922;2023-02-26T03:10:41;1.20;99.90
28524;DHT22;15734;50.904;6.922;2023-02-26T03:13:13;1.20;99.90
28524;DHT22;15734;50.904;6.922;2023-02-26T03:15:59;1.10;99.90
28524;DHT22;15734;50.904;6.922;2023-02-26T03:21:17;1.10;99.90
28524;DHT22;15734;50.904;6.922;2023-02-26T03:23:45;1.10;99.90
28524;DHT22;15734;50.904;6.922;2023-02-26T03:26:17;1.10;99.90
28524;DHT22;15734;50.904;6.922;2023-02-26T03:28:44;1.10;99.90
28524;DHT22;15734;50.904;6.922;2023-02-26T03:31:22;1.00;99.90
28524;DHT22;15734;50.904;6.922;2023-02-26T03:33:58;1.10;99.90
28524;DHT22;15734;50.904;6.922;2023-02-26T03:36:26;1.00;99.90
28524;DHT22;15734;50.904;6.922;2023-02-26T03:41:41;1.00;99.90
28524;DHT22;15734;50.904;6.922;2023-02-26T03:44:13;0.90;99.90
28524;DHT22;15734;50.904;6.922;2023-02-26T03:46:44;0.90;99.90
28524;DHT22;15734;50.904;6.922;2023-02-26T03:49:12;0.90;99.90
28524;DHT22;15734;50.904;6.922;2023-02-26T03:51:39;0.80;99.90
28524;DHT22;15734;50.904;6.922;2023-02-26T03:54:12;0.80;99.90
28524;DHT22;15734;50.904;6.922;2023-02-26T03:56:41;0.80;99.90
28524;DHT22;15734;50.904;6.922;2023-02-26T03:59:07;0.80;99.90
28524;DHT22;15734;50.904;6.922;2023-02-26T04:01:35;0.90;99.90
28524;DHT22;15734;50.904;6.922;2023-02-26T04:07:01;0.90;99.90
28524;DHT22;15734;50.904;6.922;2023-02-26T04:09:27;0.90;99.90
28524;DHT22;15734;50.904;6.922;2023-02-26T04:11:53;0.90;99.90
28524;DHT22;15734;50.904;6.922;2023-02-26T04:14:20;0.90;99.90
28524;DHT22;15734;50.904;6.922;2023-02-26T04:16:46;0.80;99.90
28524;DHT22;15734;50.904;6.922;2023-02-26T04:19:11;0.90;99.90
28524;DHT22;15734;50.904;6.922;2023-02-26T04:21:36;0.90;99.90
28524;DHT22;15734;50.904;6.922;2023-02-26T04:24:02;0.80;99.90
28524;DHT22;15734;50.904;6.922;2023-02-26T04:26:27;0.80;99.90
28524;DHT22;15734;50.904;6.922;2023-02-26T04:28:53;0.80;99.90
28524;DHT22;15734;50.904;6.922;2023-02-26T04:31:18;0.80;99.90
28524;DHT22;15734;50.904;6.922;2023-02-26T04:33:44;0.80;99.90
28524;DHT22;15734;50.904;6.922;2023-02-26T04:36:09;0.80;99.90
28524;DHT22;15734;50.904;6.922;2023-02-26T04:38:35;0.80;99.90
28524;DHT22;15734;50.904;6.922;2023-02-26T04:41:00;0.80;99.90
28524;DHT22;15734;50.904;6.922;2023-02-26T04:43:26;0.80;99.90
28524;DHT22;15734;50.904;6.922;2023-02-26T04:45:51;0.80;99.90
28524;DHT22;15734;50.904;6.922;2023-02-26T04:48:17;0.80;99.90
28524;DHT22;15734;50.904;6.922;2023-02-26T04:50:43;0.80;99.90
28524;DHT22;15734;50.904;6.922;2023-02-26T04:53:09;0.70;99.90
28524;DHT22;15734;50.904;6.922;2023-02-26T04:55:34;0.80;99.90
28524;DHT22;15734;50.904;6.922;2023-02-26T04:58:00;0.80;99.90
28524;DHT22;15734;50.904;6.922;2023-02-26T05:00:25;0.80;99.90
28524;DHT22;15734;50.904;6.922;2023-02-26T05:02:51;0.80;99.90
28524;DHT22;15734;50.904;6.922;2023-02-26T05:05:16;0.80;99.90
28524;DHT22;15734;50.904;6.922;2023-02-26T05:07:42;0.70;99.90
28524;DHT22;15734;50.904;6.922;2023-02-26T05:10:08;0.70;99.90
28524;DHT22;15734;50.904;6.922;2023-02-26T05:12:33;0.70;99.90
28524;DHT22;15734;50.904;6.922;2023-02-26T05:14:59;0.70;99.90
28524;DHT22;15734;50.904;6.922;2023-02-26T05:17:24;0.70;99.90
28524;DHT22;15734;50.904;6.922;2023-02-26T05:19:50;0.70;99.90
28524;DHT22;15734;50.904;6.922;2023-02-26T05:22:15;0.60;99.90
28524;DHT22;15734;50.904;6.922;2023-02-26T05:24:41;0.60;99.90
28524;DHT22;15734;50.904;6.922;2023-02-26T05:27:08;0.60;99.90
28524;DHT22;15734;50.904;6.922;2023-02-26T05:29:33;0.60;99.90
28524;DHT22;15734;50.904;6.922;2023-02-26T05:31:59;0.60;99.90
28524;DHT22;15734;50.904;6.922;2023-02-26T05:34:24;0.50;99.90
28524;DHT22;15734;50.904;6.922;2023-02-26T05:36:50;0.60;99.90
28524;DHT22;15734;50.904;6.922;2023-02-26T05:39:15;0.60;99.90
28524;DHT22;15734;50.904;6.922;2023-02-26T05:41:40;0.50;99.90
28524;DHT22;15734;50.904;6.922;2023-02-26T05:44:06;0.50;99.90
28524;DHT22;15734;50.904;6.922;2023-02-26T05:46:34;0.50;99.90
28524;DHT22;15734;50.904;6.922;2023-02-26T05:48:59;0.50;99.90
28524;DHT22;15734;50.904;6.922;2023-02-26T05:51:25;0.50;99.90
28524;DHT22;15734;50.904;6.922;2023-02-26T05:53:51;0.50;99.90
28524;DHT22;15734;50.904;6.922;2023-02-26T05:56:16;0.50;99.90
28524;DHT22;15734;50.904;6.922;2023-02-26T05:58:42;0.50;99.90
28524;DHT22;15734;50.904;6.922;2023-02-26T06:01:07;0.50;99.90
28524;DHT22;15734;50.904;6.922;2023-02-26T06:03:32;0.50;99.90
28524;DHT22;15734;50.904;6.922;2023-02-26T06:05:58;0.40;99.90
28524;DHT22;15734;50.904;6.922;2023-02-26T06:08:24;0.40;99.90
28524;DHT22;15734;50.904;6.922;2023-02-26T06:10:49;0.40;99.90
28524;DHT22;15734;50.904;6.922;2023-02-26T06:13:15;0.50;99.90
28524;DHT22;15734;50.904;6.922;2023-02-26T06:15:41;0.40;99.90
28524;DHT22;15734;50.904;6.922;2023-02-26T06:18:06;0.40;99.90
28524;DHT22;15734;50.904;6.922;2023-02-26T06:20:33;0.40;99.90
28524;DHT22;15734;50.904;6.922;2023-02-26T06:22:58;0.40;99.90
28524;DHT22;15734;50.904;6.922;2023-02-26T06:25:23;0.40;99.90
28524;DHT22;15734;50.904;6.922;2023-02-26T06:27:49;0.30;99.90
28524;DHT22;15734;50.904;6.922;2023-02-26T06:30:14;0.40;99.90
28524;DHT22;15734;50.904;6.922;2023-02-26T06:32:40;0.40;99.90
28524;DHT22;15734;50.904;6.922;2023-02-26T06:35:05;0.30;99.90
28524;DHT22;15734;50.904;6.922;2023-02-26T06:37:31;0.40;99.90
28524;DHT22;15734;50.904;6.922;2023-02-26T06:39:57;0.40;99.90
28524;DHT22;15734;50.904;6.922;2023-02-26T06:42:22;0.30;99.90
28524;DHT22;15734;50.904;6.922;2023-02-26T06:44:48;0.30;99.90
28524;DHT22;15734;50.904;6.922;2023-02-26T06:47:13;0.30;99.90
28524;DHT22;15734;50.904;6.922;2023-02-26T06:49:38;0.30;99.90
28524;DHT22;15734;50.904;6.922;2023-02-26T06:52:04;0.30;99.90
28524;DHT22;15734;50.904;6.922;2023-02-26T06:54:29;0.30;99.90
28524;DHT22;15734;50.904;6.922;2023-02-26T06:56:55;0.30;99.90
28524;DHT22;15734;50.904;6.922;2023-02-26T06:59:24;0.30;99.90
28524;DHT22;15734;50.904;6.922;2023-02-26T07:01:50;0.30;99.90
28524;DHT22;15734;50.904;6.922;2023-02-26T07:04:15;0.40;99.90
28524;DHT22;15734;50.904;6.922;2023-02-26T07:06:41;0.40;99.90
28524;DHT22;15734;50.904;6.922;2023-02-26T07:09:06;0.40;99.90
28524;DHT22;15734;50.904;6.922;2023-02-26T07:11:32;0.40;99.90
28524;DHT22;15734;50.904;6.922;2023-02-26T07:13:57;0.40;99.90
28524;DHT22;15734;50.904;6.922;2023-02-26T07:16:23;0.40;99.90
28524;DHT22;15734;50.904;6.922;2023-02-26T07:18:48;0.40;99.90
28524;DHT22;15734;50.904;6.922;2023-02-26T07:21:14;0.40;99.90
28524;DHT22;15734;50.904;6.922;2023-02-26T07:23:39;0.40;99.90
28524;DHT22;15734;50.904;6.922;2023-02-26T07:26:05;0.50;99.90
28524;DHT22;15734;50.904;6.922;2023-02-26T07:28:30;0.50;99.90
28524;DHT22;15734;50.904;6.922;2023-02-26T07:30:56;0.50;99.90
28524;DHT22;15734;50.904;6.922;2023-02-26T07:33:21;0.60;99.90
28524;DHT22;15734;50.904;6.922;2023-02-26T07:35:47;0.60;99.90
28524;DHT22;15734;50.904;6.922;2023-02-26T07:38:12;0.70;99.90
28524;DHT22;15734;50.904;6.922;2023-02-26T07:40:38;0.70;99.90
28524;DHT22;15734;50.904;6.922;2023-02-26T07:43:03;0.70;99.90
28524;DHT22;15734;50.904;6.922;2023-02-26T07:45:29;0.80;99.90
28524;DHT22;15734;50.904;6.922;2023-02-26T07:47:54;0.80;99.90
28524;DHT22;15734;50.904;6.922;2023-02-26T07:50:20;0.80;99.90
28524;DHT22;15734;50.904;6.922;2023-02-26T07:52:46;0.80;99.90
28524;DHT22;15734;50.904;6.922;2023-02-26T07:55:12;0.80;99.90
28524;DHT22;15734;50.904;6.922;2023-02-26T07:57:37;0.90;99.90
28524;DHT22;15734;50.904;6.922;2023-02-26T08:00:03;0.90;99.90
28524;DHT22;15734;50.904;6.922;2023-02-26T08:02:29;0.90;99.90
28524;DHT22;15734;50.904;6.922;2023-02-26T08:04:54;1.00;99.90
28524;DHT22;15734;50.904;6.922;2023-02-26T08:07:20;1.00;99.90
28524;DHT22;15734;50.904;6.922;2023-02-26T08:09:45;1.00;99.90
28524;DHT22;15734;50.904;6.922;2023-02-26T08:12:11;1.10;99.90
28524;DHT22;15734;50.904;6.922;2023-02-26T08:14:36;1.10;99.90
28524;DHT22;15734;50.904;6.922;2023-02-26T08:17:01;1.10;99.90
28524;DHT22;15734;50.904;6.922;2023-02-26T08:19:27;1.10;99.90
28524;DHT22;15734;50.904;6.922;2023-02-26T08:21:52;1.10;99.90
28524;DHT22;15734;50.904;6.922;2023-02-26T08:24:20;1.10;99.90
28524;DHT22;15734;50.904;6.922;2023-02-26T08:26:45;1.20;99.90
28524;DHT22;15734;50.904;6.922;2023-02-26T08:29:11;1.20;99.90
28524;DHT22;15734;50.904;6.922;2023-02-26T08:31:36;1.20;99.90
28524;DHT22;15734;50.904;6.922;2023-02-26T08:34:02;1.30;99.90
28524;DHT22;15734;50.904;6.922;2023-02-26T08:36:28;1.40;99.90
28524;DHT22;15734;50.904;6.922;2023-02-26T08:38:54;1.40;99.90
28524;DHT22;15734;50.904;6.922;2023-02-26T08:41:19;1.40;99.90
28524;DHT22;15734;50.904;6.922;2023-02-26T08:43:46;1.50;99.90
28524;DHT22;15734;50.904;6.922;2023-02-26T08:46:11;1.50;99.90
28524;DHT22;15734;50.904;6.922;2023-02-26T08:48:37;1.60;99.90
28524;DHT22;15734;50.904;6.922;2023-02-26T08:51:02;1.60;99.90
28524;DHT22;15734;50.904;6.922;2023-02-26T08:53:28;1.70;99.90
28524;DHT22;15734;50.904;6.922;2023-02-26T08:55:53;1.80;99.90
28524;DHT22;15734;50.904;6.922;2023-02-26T08:58:19;1.80;99.90
28524;DHT22;15734;50.904;6.922;2023-02-26T09:00:44;1.80;99.90
28524;DHT22;15734;50.904;6.922;2023-02-26T09:03:10;1.90;99.90
28524;DHT22;15734;50.904;6.922;2023-02-26T09:05:35;2.00;99.90
28524;DHT22;15734;50.904;6.922;2023-02-26T09:08:01;2.00;99.90
28524;DHT22;15734;50.904;6.922;2023-02-26T09:10:26;2.10;99.90
28524;DHT22;15734;50.904;6.922;2023-02-26T09:12:52;2.10;99.90
28524;DHT22;15734;50.904;6.922;2023-02-26T09:15:17;2.10;99.90
28524;DHT22;15734;50.904;6.922;2023-02-26T09:17:44;2.20;99.90
28524;DHT22;15734;50.904;6.922;2023-02-26T09:20:10;2.30;99.90
28524;DHT22;15734;50.904;6.922;2023-02-26T09:22:35;2.30;99.90
28524;DHT22;15734;50.904;6.922;2023-02-26T09:25:01;2.40;99.90
28524;DHT22;15734;50.904;6.922;2023-02-26T09:27:26;2.50;99.90
28524;DHT22;15734;50.904;6.922;2023-02-26T09:29:52;2.50;99.90
28524;DHT22;15734;50.904;6.922;2023-02-26T09:32:17;2.60;99.90
28524;DHT22;15734;50.904;6.922;2023-02-26T09:34:43;2.70;99.90
28524;DHT22;15734;50.904;6.922;2023-02-26T09:37:08;2.80;99.90
28524;DHT22;15734;50.904;6.922;2023-02-26T09:39:34;2.90;99.90
28524;DHT22;15734;50.904;6.922;2023-02-26T09:42:07;3.10;99.90
28524;DHT22;15734;50.904;6.922;2023-02-26T09:44:38;3.10;99.90
28524;DHT22;15734;50.904;6.922;2023-02-26T09:54:57;3.60;99.90
28524;DHT22;15734;50.904;6.922;2023-02-26T09:57:28;3.60;99.90
28524;DHT22;15734;50.904;6.922;2023-02-26T09:59:54;3.60;99.90
28524;DHT22;15734;50.904;6.922;2023-02-26T10:02:26;3.60;99.90
28524;DHT22;15734;50.904;6.922;2023-02-26T10:10:11;4.10;99.90
28524;DHT22;15734;50.904;6.922;2023-02-26T10:12:39;4.10;99.90
28524;DHT22;15734;50.904;6.922;2023-02-26T10:20:19;4.50;99.90
28524;DHT22;15734;50.904;6.922;2023-02-26T10:22:54;4.40;99.90
28524;DHT22;15734;50.904;6.922;2023-02-26T10:25:21;4.40;99.90
28524;DHT22;15734;50.904;6.922;2023-02-26T10:28:00;4.40;99.90
28524;DHT22;15734;50.904;6.922;2023-02-26T10:30:38;4.40;99.90
28524;DHT22;15734;50.904;6.922;2023-02-26T10:35:41;4.30;99.90
28524;DHT22;15734;50.904;6.922;2023-02-26T10:38:12;4.40;99.90
28524;DHT22;15734;50.904;6.922;2023-02-26T10:40:43;4.40;99.90
28524;DHT22;15734;50.904;6.922;2023-02-26T10:43:55;4.60;99.90
28524;DHT22;15734;50.904;6.922;2023-02-26T10:46:16;4.70;99.90
28524;DHT22;15734;50.904;6.922;2023-02-26T10:51:25;4.80;99.90
28524;DHT22;15734;50.904;6.922;2023-02-26T10:53:57;5.10;99.90
28524;DHT22;15734;50.904;6.922;2023-02-26T10:56:24;5.30;99.90
28524;DHT22;15734;50.904;6.922;2023-02-26T10:58:51;5.50;99.90
28524;DHT22;15734;50.904;6.922;2023-02-26T11:01:20;5.60;99.90
28524;DHT22;15734;50.904;6.922;2023-02-26T11:03:46;5.70;99.90
28524;DHT22;15734;50.904;6.922;2023-02-26T11:06:20;5.70;99.90
28524;DHT22;15734;50.904;6.922;2023-02-26T11:08:47;5.70;99.90
28524;DHT22;15734;50.904;6.922;2023-02-26T11:11:34;5.80;99.90
28524;DHT22;15734;50.904;6.922;2023-02-26T11:13:58;5.60;99.90
28524;DHT22;15734;50.904;6.922;2023-02-26T11:16:24;5.50;99.90
28524;DHT22;15734;50.904;6.922;2023-02-26T11:18:52;5.40;99.90
28524;DHT22;15734;50.904;6.922;2023-02-26T11:21:21;5.20;99.90
28524;DHT22;15734;50.904;6.922;2023-02-26T11:23:51;5.30;99.90
28524;DHT22;15734;50.904;6.922;2023-02-26T11:26:18;4.90;99.90
28524;DHT22;15734;50.904;6.922;2023-02-26T11:28:48;4.90;99.90
28524;DHT22;15734;50.904;6.922;2023-02-26T11:31:15;5.20;99.90
28524;DHT22;15734;50.904;6.922;2023-02-26T11:33:47;5.30;99.90
28524;DHT22;15734;50.904;6.922;2023-02-26T11:36:14;5.40;99.90
28524;DHT22;15734;50.904;6.922;2023-02-26T11:38:43;5.10;99.90
28524;DHT22;15734;50.904;6.922;2023-02-26T11:41:10;5.00;99.90
28524;DHT22;15734;50.904;6.922;2023-02-26T11:43:41;4.90;99.90
28524;DHT22;15734;50.904;6.922;2023-02-26T11:46:07;4.70;99.90
28524;DHT22;15734;50.904;6.922;2023-02-26T11:48:38;4.50;99.90
28524;DHT22;15734;50.904;6.922;2023-02-26T11:51:04;4.40;99.90
28524;DHT22;15734;50.904;6.922;2023-02-26T11:53:36;4.70;99.90
28524;DHT22;15734;50.904;6.922;2023-02-26T11:56:10;4.90;99.90
28524;DHT22;15734;50.904;6.922;2023-02-26T11:58:38;5.00;99.90
28524;DHT22;15734;50.904;6.922;2023-02-26T12:01:04;5.10;99.90
28524;DHT22;15734;50.904;6.922;2023-02-26T12:03:31;5.40;99.90
28524;DHT22;15734;50.904;6.922;2023-02-26T12:05:57;6.10;99.90
28524;DHT22;15734;50.904;6.922;2023-02-26T12:08:24;6.70;99.90
28524;DHT22;15734;50.904;6.922;2023-02-26T12:13:24;6.80;99.90
28524;DHT22;15734;50.904;6.922;2023-02-26T12:20:50;5.60;99.90
28524;DHT22;15734;50.904;6.922;2023-02-26T12:23:23;5.20;99.90
28524;DHT22;15734;50.904;6.922;2023-02-26T12:44:22;6.90;99.90
28524;DHT22;15734;50.904;6.922;2023-02-26T12:46:54;7.20;99.90
28524;DHT22;15734;50.904;6.922;2023-02-26T12:59:31;7.80;99.90
28524;DHT22;15734;50.904;6.922;2023-02-26T13:02:08;7.80;99.90
28524;DHT22;15734;50.904;6.922;2023-02-26T13:09:47;8.70;99.90
28524;DHT22;15734;50.904;6.922;2023-02-26T13:12:18;8.60;99.90
28524;DHT22;15734;50.904;6.922;2023-02-26T13:20:09;7.60;99.90
28524;DHT22;15734;50.904;6.922;2023-02-26T13:22:40;7.20;99.90
28524;DHT22;15734;50.904;6.922;2023-02-26T13:27:41;6.40;99.90
28524;DHT22;15734;50.904;6.922;2023-02-26T13:32:42;6.30;99.90
28524;DHT22;15734;50.904;6.922;2023-02-26T13:35:16;6.30;99.90
28524;DHT22;15734;50.904;6.922;2023-02-26T13:37:47;6.60;99.90
28524;DHT22;15734;50.904;6.922;2023-02-26T13:48:16;7.20;99.90
28524;DHT22;15734;50.904;6.922;2023-02-26T13:55:50;7.80;99.90
28524;DHT22;15734;50.904;6.922;2023-02-26T14:05:52;8.20;99.90
28524;DHT22;15734;50.904;6.922;2023-02-26T14:08:25;7.90;99.90
28524;DHT22;15734;50.904;6.922;2023-02-26T14:10:56;7.90;99.90
28524;DHT22;15734;50.904;6.922;2023-02-26T14:13:23;7.80;99.90
28524;DHT22;15734;50.904;6.922;2023-02-26T14:15:58;8.00;99.90
28524;DHT22;15734;50.904;6.922;2023-02-26T14:23:45;7.80;99.90
28524;DHT22;15734;50.904;6.922;2023-02-26T14:26:14;8.00;99.90
28524;DHT22;15734;50.904;6.922;2023-02-26T14:28:54;7.80;99.90
28524;DHT22;15734;50.904;6.922;2023-02-26T14:31:23;7.40;99.90
28524;DHT22;15734;50.904;6.922;2023-02-26T14:36:40;7.50;99.90
28524;DHT22;15734;50.904;6.922;2023-02-26T14:39:07;7.20;99.90
28524;DHT22;15734;50.904;6.922;2023-02-26T14:41:37;7.20;99.90
28524;DHT22;15734;50.904;6.922;2023-02-26T14:44:15;7.30;99.90
28524;DHT22;15734;50.904;6.922;2023-02-26T14:46:42;7.40;99.90
28524;DHT22;15734;50.904;6.922;2023-02-26T14:49:42;7.20;99.90
28524;DHT22;15734;50.904;6.922;2023-02-26T14:54:42;7.00;99.90
28524;DHT22;15734;50.904;6.922;2023-02-26T15:05:28;6.30;99.90
28524;DHT22;15734;50.904;6.922;2023-02-26T15:15:41;5.90;99.90
28524;DHT22;15734;50.904;6.922;2023-02-26T15:25:47;6.20;99.90
28524;DHT22;15734;50.904;6.922;2023-02-26T15:28:32;6.30;99.90
28524;DHT22;15734;50.904;6.922;2023-02-26T15:30:59;6.30;99.90
28524;DHT22;15734;50.904;6.922;2023-02-26T15:33:25;6.30;99.90
28524;DHT22;15734;50.904;6.922;2023-02-26T15:35:51;6.40;99.90
28524;DHT22;15734;50.904;6.922;2023-02-26T15:38:18;6.50;99.90
28524;DHT22;15734;50.904;6.922;2023-02-26T15:40:43;6.70;99.90
28524;DHT22;15734;50.904;6.922;2023-02-26T15:43:10;6.80;99.90
28524;DHT22;15734;50.904;6.922;2023-02-26T15:45:39;6.60;99.90
28524;DHT22;15734;50.904;6.922;2023-02-26T15:48:12;6.40;99.90
28524;DHT22;15734;50.904;6.922;2023-02-26T15:50:42;6.10;99.90
28524;DHT22;15734;50.904;6.922;2023-02-26T15:53:11;6.00;99.90
28524;DHT22;15734;50.904;6.922;2023-02-26T15:55:41;5.90;99.90
28524;DHT22;15734;50.904;6.922;2023-02-26T15:58:10;5.80;99.90
28524;DHT22;15734;50.904;6.922;2023-02-26T16:00:38;5.80;99.90
28524;DHT22;15734;50.904;6.922;2023-02-26T16:03:08;5.70;99.90
28524;DHT22;15734;50.904;6.922;2023-02-26T16:05:34;5.60;99.90
28524;DHT22;15734;50.904;6.922;2023-02-26T16:07:59;5.60;99.90
28524;DHT22;15734;50.904;6.922;2023-02-26T16:10:26;5.40;99.90
28524;DHT22;15734;50.904;6.922;2023-02-26T16:12:52;5.30;99.90
28524;DHT22;15734;50.904;6.922;2023-02-26T16:15:53;5.30;99.90
28524;DHT22;15734;50.904;6.922;2023-02-26T16:18:13;5.30;99.90
28524;DHT22;15734;50.904;6.922;2023-02-26T16:20:41;5.30;99.90
28524;DHT22;15734;50.904;6.922;2023-02-26T16:23:12;5.30;99.90
28524;DHT22;15734;50.904;6.922;2023-02-26T16:25:39;5.20;99.90
28524;DHT22;15734;50.904;6.922;2023-02-26T16:28:13;5.10;99.90
28524;DHT22;15734;50.904;6.922;2023-02-26T16:30:41;5.10;99.90
28524;DHT22;15734;50.904;6.922;2023-02-26T16:33:12;5.10;99.90
28524;DHT22;15734;50.904;6.922;2023-02-26T16:35:42;5.00;99.90
28524;DHT22;15734;50.904;6.922;2023-02-26T16:38:15;4.90;99.90
28524;DHT22;15734;50.904;6.922;2023-02-26T16:40:42;4.90;99.90
28524;DHT22;15734;50.904;6.922;2023-02-26T16:45:53;4.70;99.90
28524;DHT22;15734;50.904;6.922;2023-02-26T16:48:23;4.70;99.90
28524;DHT22;15734;50.904;6.922;2023-02-26T16:51:00;4.60;99.90
28524;DHT22;15734;50.904;6.922;2023-02-26T16:53:34;4.60;99.90
28524;DHT22;15734;50.904;6.922;2023-02-26T16:56:00;4.50;99.90
28524;DHT22;15734;50.904;6.922;2023-02-26T16:58:25;4.50;99.90
28524;DHT22;15734;50.904;6.922;2023-02-26T17:00:58;4.50;99.90
28524;DHT22;15734;50.904;6.922;2023-02-26T17:03:26;4.40;99.90
28524;DHT22;15734;50.904;6.922;2023-02-26T17:06:04;4.40;99.90
28524;DHT22;15734;50.904;6.922;2023-02-26T17:08:31;4.30;99.90
28524;DHT22;15734;50.904;6.922;2023-02-26T17:11:01;4.30;99.90
28524;DHT22;15734;50.904;6.922;2023-02-26T17:13:29;4.30;99.90
28524;DHT22;15734;50.904;6.922;2023-02-26T17:16:00;4.20;99.90
28524;DHT22;15734;50.904;6.922;2023-02-26T17:18:25;4.20;99.90
28524;DHT22;15734;50.904;6.922;2023-02-26T17:20:51;4.10;99.90
28524;DHT22;15734;50.904;6.922;2023-02-26T17:23:17;4.10;99.90
28524;DHT22;15734;50.904;6.922;2023-02-26T17:25:46;4.10;99.90
28524;DHT22;15734;50.904;6.922;2023-02-26T17:28:14;4.10;99.90
28524;DHT22;15734;50.904;6.922;2023-02-26T17:30:41;4.00;99.90
28524;DHT22;15734;50.904;6.922;2023-02-26T17:33:08;4.00;99.90
28524;DHT22;15734;50.904;6.922;2023-02-26T17:35:35;4.00;99.90
28524;DHT22;15734;50.904;6.922;2023-02-26T17:38:00;3.90;99.90
28524;DHT22;15734;50.904;6.922;2023-02-26T17:40:28;3.90;99.90
28524;DHT22;15734;50.904;6.922;2023-02-26T17:42:56;3.80;99.90
28524;DHT22;15734;50.904;6.922;2023-02-26T17:45:22;3.80;99.90
28524;DHT22;15734;50.904;6.922;2023-02-26T17:47:47;3.80;99.90
28524;DHT22;15734;50.904;6.922;2023-02-26T17:53:01;3.80;99.90
28524;DHT22;15734;50.904;6.922;2023-02-26T17:55:26;3.80;99.90
28524;DHT22;15734;50.904;6.922;2023-02-26T17:57:52;3.70;99.90
28524;DHT22;15734;50.904;6.922;2023-02-26T18:00:19;3.70;99.90
28524;DHT22;15734;50.904;6.922;2023-02-26T18:02:44;3.70;99.90
28524;DHT22;15734;50.904;6.922;2023-02-26T18:05:10;3.70;99.90
28524;DHT22;15734;50.904;6.922;2023-02-26T18:07:35;3.60;99.90
28524;DHT22;15734;50.904;6.922;2023-02-26T18:10:01;3.60;99.90
28524;DHT22;15734;50.904;6.922;2023-02-26T18:12:28;3.60;99.90
28524;DHT22;15734;50.904;6.922;2023-02-26T18:14:53;3.50;99.90
28524;DHT22;15734;50.904;6.922;2023-02-26T18:17:23;3.50;99.90
28524;DHT22;15734;50.904;6.922;2023-02-26T18:19:49;3.40;99.90
28524;DHT22;15734;50.904;6.922;2023-02-26T18:22:15;3.40;99.90
28524;DHT22;15734;50.904;6.922;2023-02-26T18:24:41;3.40;99.90
28524;DHT22;15734;50.904;6.922;2023-02-26T18:27:17;3.40;99.90
28524;DHT22;15734;50.904;6.922;2023-02-26T18:29:43;3.40;99.90
28524;DHT22;15734;50.904;6.922;2023-02-26T18:32:12;3.40;99.90
28524;DHT22;15734;50.904;6.922;2023-02-26T18:34:38;3.40;99.90
28524;DHT22;15734;50.904;6.922;2023-02-26T18:37:04;3.40;99.90
28524;DHT22;15734;50.904;6.922;2023-02-26T18:39:29;3.30;99.90
28524;DHT22;15734;50.904;6.922;2023-02-26T18:41:58;3.30;99.90
28524;DHT22;15734;50.904;6.922;2023-02-26T18:44:24;3.30;99.90
28524;DHT22;15734;50.904;6.922;2023-02-26T18:46:49;3.30;99.90
28524;DHT22;15734;50.904;6.922;2023-02-26T18:49:16;3.30;99.90
28524;DHT22;15734;50.904;6.922;2023-02-26T18:51:42;3.30;99.90
28524;DHT22;15734;50.904;6.922;2023-02-26T18:54:07;3.30;99.90